sensor_id;sensor_type;location;lat;lon;timestamp;pressure;altitude;pressure_sealevel;temperature;humidity
75298;BME280;63896;45.990;18.688;2022-10-16T00:02:28;101174.59;;;11.56;76.99
75298;BME280;63896;45.990;18.688;2022-10-16T00:05:31;101163.97;;;11.42;78.02
75298;BME280;63896;45.990;18.688;2022-10-16T00:08:35;101174.13;;;11.32;78.15
75298;BME280;63896;45.990;18.688;2022-10-16T00:11:40;101179.84;;;11.23;78.89
75298;BME280;63896;45.990;18.688;2022-10-16T00:14:43;101192.28;;;11.22;80.09
75298;BME280;63896;45.990;18.688;2022-10-16T00:17:46;101193.53;;;11.26;80.58
75298;BME280;63896;45.990;18.688;2022-10-16T00:20:49;101193.31;;;11.21;80.51
75298;BME280;63896;45.990;18.688;2022-10-16T00:23:53;101198.19;;;11.11;81.21
75298;BME280;63896;45.990;18.688;2022-10-16T00:26:56;101192.59;;;10.99;81.80
75298;BME280;63896;45.990;18.688;2022-10-16T00:29:59;101196.09;;;11.00;81.91
75298;BME280;63896;45.990;18.688;2022-10-16T00:33:02;101195.88;;;11.02;81.34
75298;BME280;63896;45.990;18.688;2022-10-16T00:36:06;101199.50;;;10.94;80.33
75298;BME280;63896;45.990;18.688;2022-10-16T00:39:09;101203.81;;;10.95;80.19
75298;BME280;63896;45.990;18.688;2022-10-16T00:42:18;101204.41;;;10.90;79.86
75298;BME280;63896;45.990;18.688;2022-10-16T00:45:21;101202.47;;;10.78;80.34
75298;BME280;63896;45.990;18.688;2022-10-16T00:48:23;101208.75;;;10.70;80.85
75298;BME280;63896;45.990;18.688;2022-10-16T00:51:40;101206.47;;;10.61;81.83
75298;BME280;63896;45.990;18.688;2022-10-16T00:54:45;101208.06;;;10.55;82.42
75298;BME280;63896;45.990;18.688;2022-10-16T00:57:51;101214.75;;;10.51;82.38
75298;BME280;63896;45.990;18.688;2022-10-16T01:00:54;101212.75;;;10.53;82.00
75298;BME280;63896;45.990;18.688;2022-10-16T01:03:57;101209.94;;;10.61;82.21
75298;BME280;63896;45.990;18.688;2022-10-16T01:07:28;101215.63;;;10.58;82.09
75298;BME280;63896;45.990;18.688;2022-10-16T01:10:52;101212.34;;;10.56;82.05
75298;BME280;63896;45.990;18.688;2022-10-16T01:14:00;101212.75;;;10.53;81.73
75298;BME280;63896;45.990;18.688;2022-10-16T01:17:12;101220.41;;;10.41;81.33
75298;BME280;63896;45.990;18.688;2022-10-16T01:20:51;101215.28;;;10.40;82.66
75298;BME280;63896;45.990;18.688;2022-10-16T01:27:25;101219.59;;;10.41;82.98
75298;BME280;63896;45.990;18.688;2022-10-16T01:30:32;101212.84;;;10.38;83.16
75298;BME280;63896;45.990;18.688;2022-10-16T01:33:45;101211.50;;;10.28;83.04
75298;BME280;63896;45.990;18.688;2022-10-16T01:36:52;101218.44;;;10.22;82.49
75298;BME280;63896;45.990;18.688;2022-10-16T01:39:59;101229.59;;;10.18;82.91
75298;BME280;63896;45.990;18.688;2022-10-16T01:43:07;101226.81;;;10.26;82.61
75298;BME280;63896;45.990;18.688;2022-10-16T01:46:13;101229.25;;;10.27;82.86
75298;BME280;63896;45.990;18.688;2022-10-16T01:49:18;101227.00;;;10.24;81.91
75298;BME280;63896;45.990;18.688;2022-10-16T01:52:25;101233.34;;;10.23;82.11
75298;BME280;63896;45.990;18.688;2022-10-16T01:55:33;101244.59;;;10.11;83.53
75298;BME280;63896;45.990;18.688;2022-10-16T01:58:42;101237.28;;;9.91;83.38
75298;BME280;63896;45.990;18.688;2022-10-16T02:01:50;101229.13;;;9.93;83.80
75298;BME280;63896;45.990;18.688;2022-10-16T02:04:58;101232.91;;;9.84;84.85
75298;BME280;63896;45.990;18.688;2022-10-16T02:08:04;101230.38;;;9.76;85.23
75298;BME280;63896;45.990;18.688;2022-10-16T02:11:07;101234.31;;;9.80;85.19
75298;BME280;63896;45.990;18.688;2022-10-16T02:14:10;101243.25;;;9.79;85.21
75298;BME280;63896;45.990;18.688;2022-10-16T02:17:15;101238.28;;;9.69;84.84
75298;BME280;63896;45.990;18.688;2022-10-16T02:20:24;101248.88;;;9.69;84.86
75298;BME280;63896;45.990;18.688;2022-10-16T02:23:36;101247.78;;;9.64;85.54
75298;BME280;63896;45.990;18.688;2022-10-16T02:27:05;101249.34;;;9.58;85.19
75298;BME280;63896;45.990;18.688;2022-10-16T02:33:21;101257.50;;;9.56;85.32
75298;BME280;63896;45.990;18.688;2022-10-16T02:36:26;101264.44;;;9.57;85.02
75298;BME280;63896;45.990;18.688;2022-10-16T02:39:32;101269.09;;;9.55;85.49
75298;BME280;63896;45.990;18.688;2022-10-16T02:42:37;101265.00;;;9.53;85.10
75298;BME280;63896;45.990;18.688;2022-10-16T02:45:41;101265.81;;;9.53;84.70
75298;BME280;63896;45.990;18.688;2022-10-16T02:48:44;101267.91;;;9.43;85.30
75298;BME280;63896;45.990;18.688;2022-10-16T02:51:47;101263.63;;;9.42;86.52
75298;BME280;63896;45.990;18.688;2022-10-16T02:54:49;101275.31;;;9.48;86.01
75298;BME280;63896;45.990;18.688;2022-10-16T02:57:52;101272.72;;;9.54;85.78
75298;BME280;63896;45.990;18.688;2022-10-16T03:00:55;101269.47;;;9.52;86.17
75298;BME280;63896;45.990;18.688;2022-10-16T03:03:58;101274.03;;;9.44;86.52
75298;BME280;63896;45.990;18.688;2022-10-16T03:07:01;101276.78;;;9.36;86.29
75298;BME280;63896;45.990;18.688;2022-10-16T03:10:04;101275.03;;;9.43;87.03
75298;BME280;63896;45.990;18.688;2022-10-16T03:13:07;101267.47;;;9.40;87.06
75298;BME280;63896;45.990;18.688;2022-10-16T03:16:10;101284.00;;;9.42;87.06
75298;BME280;63896;45.990;18.688;2022-10-16T03:19:13;101284.00;;;9.27;86.85
75298;BME280;63896;45.990;18.688;2022-10-16T03:22:16;101274.78;;;9.23;87.30
75298;BME280;63896;45.990;18.688;2022-10-16T03:25:18;101287.09;;;9.16;87.42
75298;BME280;63896;45.990;18.688;2022-10-16T03:28:21;101285.38;;;9.08;87.52
75298;BME280;63896;45.990;18.688;2022-10-16T03:31:24;101298.81;;;9.07;87.67
75298;BME280;63896;45.990;18.688;2022-10-16T03:34:27;101296.50;;;9.04;87.31
75298;BME280;63896;45.990;18.688;2022-10-16T03:37:30;101303.28;;;9.06;87.44
75298;BME280;63896;45.990;18.688;2022-10-16T03:40:33;101305.09;;;9.06;87.47
75298;BME280;63896;45.990;18.688;2022-10-16T03:43:35;101310.47;;;9.13;86.11
75298;BME280;63896;45.990;18.688;2022-10-16T03:46:39;101313.50;;;9.09;86.46
75298;BME280;63896;45.990;18.688;2022-10-16T03:49:42;101317.69;;;9.04;86.87
75298;BME280;63896;45.990;18.688;2022-10-16T03:52:45;101324.09;;;9.09;86.86
75298;BME280;63896;45.990;18.688;2022-10-16T03:55:47;101319.91;;;9.15;86.93
75298;BME280;63896;45.990;18.688;2022-10-16T03:58:51;101314.31;;;9.25;86.32
75298;BME280;63896;45.990;18.688;2022-10-16T04:01:54;101323.25;;;9.24;86.29
75298;BME280;63896;45.990;18.688;2022-10-16T04:04:57;101320.91;;;9.14;86.28
75298;BME280;63896;45.990;18.688;2022-10-16T04:07:59;101328.09;;;9.20;86.12
75298;BME280;63896;45.990;18.688;2022-10-16T04:11:03;101323.19;;;9.17;86.00
75298;BME280;63896;45.990;18.688;2022-10-16T04:14:05;101322.72;;;9.14;86.15
75298;BME280;63896;45.990;18.688;2022-10-16T04:17:08;101330.28;;;9.02;86.92
75298;BME280;63896;45.990;18.688;2022-10-16T04:20:11;101327.19;;;8.98;87.32
75298;BME280;63896;45.990;18.688;2022-10-16T04:23:14;101319.78;;;8.94;87.23
75298;BME280;63896;45.990;18.688;2022-10-16T04:26:16;101323.84;;;8.82;87.85
75298;BME280;63896;45.990;18.688;2022-10-16T04:29:19;101327.03;;;8.77;87.52
75298;BME280;63896;45.990;18.688;2022-10-16T04:32:22;101335.69;;;8.71;87.36
75298;BME280;63896;45.990;18.688;2022-10-16T04:35:25;101336.97;;;8.60;87.98
75298;BME280;63896;45.990;18.688;2022-10-16T04:38:28;101337.78;;;8.61;88.04
75298;BME280;63896;45.990;18.688;2022-10-16T04:41:31;101327.53;;;8.58;88.61
75298;BME280;63896;45.990;18.688;2022-10-16T04:44:34;101331.91;;;8.51;87.94
75298;BME280;63896;45.990;18.688;2022-10-16T04:47:36;101335.72;;;8.48;87.99
75298;BME280;63896;45.990;18.688;2022-10-16T04:50:39;101336.34;;;8.50;88.51
75298;BME280;63896;45.990;18.688;2022-10-16T04:53:42;101348.41;;;8.53;88.00
75298;BME280;63896;45.990;18.688;2022-10-16T04:56:45;101340.81;;;8.50;88.31
75298;BME280;63896;45.990;18.688;2022-10-16T04:59:52;101342.31;;;8.52;88.47
75298;BME280;63896;45.990;18.688;2022-10-16T05:02:55;101343.81;;;8.47;88.28
75298;BME280;63896;45.990;18.688;2022-10-16T05:05:59;101344.19;;;8.44;88.89
75298;BME280;63896;45.990;18.688;2022-10-16T05:09:02;101344.72;;;8.39;88.58
75298;BME280;63896;45.990;18.688;2022-10-16T05:12:05;101341.66;;;8.50;88.27
75298;BME280;63896;45.990;18.688;2022-10-16T05:15:08;101347.53;;;8.60;87.61
75298;BME280;63896;45.990;18.688;2022-10-16T05:18:12;101353.06;;;8.51;88.21
75298;BME280;63896;45.990;18.688;2022-10-16T05:21:14;101360.16;;;8.50;88.11
75298;BME280;63896;45.990;18.688;2022-10-16T05:24:17;101371.56;;;8.51;88.53
75298;BME280;63896;45.990;18.688;2022-10-16T05:27:20;101373.03;;;8.53;88.94
75298;BME280;63896;45.990;18.688;2022-10-16T05:30:23;101362.75;;;8.58;88.48
75298;BME280;63896;45.990;18.688;2022-10-16T05:33:26;101378.56;;;8.67;88.11
75298;BME280;63896;45.990;18.688;2022-10-16T05:36:29;101378.66;;;8.73;88.11
75298;BME280;63896;45.990;18.688;2022-10-16T05:39:32;101373.50;;;8.80;88.16
75298;BME280;63896;45.990;18.688;2022-10-16T05:42:34;101380.81;;;8.92;88.36
75298;BME280;63896;45.990;18.688;2022-10-16T05:45:37;101379.66;;;8.95;88.09
75298;BME280;63896;45.990;18.688;2022-10-16T05:48:40;101383.16;;;9.10;87.54
75298;BME280;63896;45.990;18.688;2022-10-16T05:51:43;101381.97;;;9.13;87.91
75298;BME280;63896;45.990;18.688;2022-10-16T05:54:46;101393.28;;;9.21;87.69
75298;BME280;63896;45.990;18.688;2022-10-16T05:57:49;101396.63;;;9.38;87.42
75298;BME280;63896;45.990;18.688;2022-10-16T06:00:56;101399.06;;;9.39;87.22
75298;BME280;63896;45.990;18.688;2022-10-16T06:03:59;101409.66;;;9.54;86.53
75298;BME280;63896;45.990;18.688;2022-10-16T06:07:02;101406.84;;;9.70;86.33
75298;BME280;63896;45.990;18.688;2022-10-16T06:10:06;101404.53;;;9.82;85.57
75298;BME280;63896;45.990;18.688;2022-10-16T06:13:09;101415.97;;;9.82;84.69
75298;BME280;63896;45.990;18.688;2022-10-16T06:16:12;101419.50;;;10.04;84.11
75298;BME280;63896;45.990;18.688;2022-10-16T06:19:15;101424.91;;;10.11;82.52
75298;BME280;63896;45.990;18.688;2022-10-16T06:22:20;101417.94;;;10.24;81.67
75298;BME280;63896;45.990;18.688;2022-10-16T06:25:22;101428.72;;;10.37;81.16
75298;BME280;63896;45.990;18.688;2022-10-16T06:28:25;101438.53;;;10.58;80.30
75298;BME280;63896;45.990;18.688;2022-10-16T06:31:28;101444.53;;;10.67;79.64
75298;BME280;63896;45.990;18.688;2022-10-16T06:34:33;101448.66;;;10.69;78.64
75298;BME280;63896;45.990;18.688;2022-10-16T06:37:36;101448.34;;;11.00;78.03
75298;BME280;63896;45.990;18.688;2022-10-16T06:40:42;101443.72;;;12.53;71.92
75298;BME280;63896;45.990;18.688;2022-10-16T06:43:46;101441.69;;;14.82;63.67
75298;BME280;63896;45.990;18.688;2022-10-16T06:46:49;101452.19;;;14.76;63.20
75298;BME280;63896;45.990;18.688;2022-10-16T06:49:52;101453.91;;;15.70;60.32
75298;BME280;63896;45.990;18.688;2022-10-16T06:52:55;101450.03;;;16.68;56.53
75298;BME280;63896;45.990;18.688;2022-10-16T06:56:10;101458.59;;;18.68;49.40
75298;BME280;63896;45.990;18.688;2022-10-16T06:59:13;101468.53;;;19.46;48.33
75298;BME280;63896;45.990;18.688;2022-10-16T07:02:16;101473.94;;;19.68;47.31
75298;BME280;63896;45.990;18.688;2022-10-16T07:05:19;101473.88;;;20.44;45.52
75298;BME280;63896;45.990;18.688;2022-10-16T07:08:22;101476.66;;;21.40;42.12
75298;BME280;63896;45.990;18.688;2022-10-16T07:11:25;101478.31;;;22.35;38.98
75298;BME280;63896;45.990;18.688;2022-10-16T07:14:27;101480.63;;;23.09;37.85
75298;BME280;63896;45.990;18.688;2022-10-16T07:17:30;101482.53;;;23.08;37.37
75298;BME280;63896;45.990;18.688;2022-10-16T07:20:33;101486.56;;;24.46;34.34
75298;BME280;63896;45.990;18.688;2022-10-16T07:23:36;101487.28;;;25.34;32.86
75298;BME280;63896;45.990;18.688;2022-10-16T07:26:40;101479.75;;;26.07;31.56
75298;BME280;63896;45.990;18.688;2022-10-16T07:29:43;101487.50;;;25.95;31.63
75298;BME280;63896;45.990;18.688;2022-10-16T07:32:46;101496.00;;;24.53;33.57
75298;BME280;63896;45.990;18.688;2022-10-16T07:35:52;101502.34;;;26.32;30.99
75298;BME280;63896;45.990;18.688;2022-10-16T07:38:55;101494.81;;;27.50;29.22
75298;BME280;63896;45.990;18.688;2022-10-16T07:42:01;101493.38;;;26.50;30.39
75298;BME280;63896;45.990;18.688;2022-10-16T07:45:05;101503.81;;;25.09;32.73
75298;BME280;63896;45.990;18.688;2022-10-16T07:48:08;101492.88;;;24.85;33.64
75298;BME280;63896;45.990;18.688;2022-10-16T07:51:11;101496.63;;;24.89;33.27
75298;BME280;63896;45.990;18.688;2022-10-16T07:54:14;101495.72;;;27.45;28.63
75298;BME280;63896;45.990;18.688;2022-10-16T07:57:17;101495.25;;;28.52;27.34
75298;BME280;63896;45.990;18.688;2022-10-16T08:00:22;101494.78;;;27.36;28.80
75298;BME280;63896;45.990;18.688;2022-10-16T08:03:25;101496.47;;;27.78;28.56
75298;BME280;63896;45.990;18.688;2022-10-16T08:06:28;101503.38;;;29.24;26.21
75298;BME280;63896;45.990;18.688;2022-10-16T08:09:31;101508.06;;;28.65;27.39
75298;BME280;63896;45.990;18.688;2022-10-16T08:12:34;101505.47;;;28.47;27.60
75298;BME280;63896;45.990;18.688;2022-10-16T08:15:36;101509.34;;;29.48;25.67
75298;BME280;63896;45.990;18.688;2022-10-16T08:18:41;101506.56;;;30.10;24.91
75298;BME280;63896;45.990;18.688;2022-10-16T08:21:47;101498.94;;;30.98;22.99
75298;BME280;63896;45.990;18.688;2022-10-16T08:24:50;101498.50;;;30.70;23.83
75298;BME280;63896;45.990;18.688;2022-10-16T08:27:53;101501.19;;;29.88;24.96
75298;BME280;63896;45.990;18.688;2022-10-16T08:30:56;101500.75;;;30.85;23.43
75298;BME280;63896;45.990;18.688;2022-10-16T08:34:01;101503.97;;;31.77;22.24
75298;BME280;63896;45.990;18.688;2022-10-16T08:37:04;101507.09;;;29.81;24.67
75298;BME280;63896;45.990;18.688;2022-10-16T08:40:24;101515.75;;;30.62;24.31
75298;BME280;63896;45.990;18.688;2022-10-16T08:47:02;101519.94;;;31.75;22.67
75298;BME280;63896;45.990;18.688;2022-10-16T08:50:14;101516.50;;;31.86;23.27
75298;BME280;63896;45.990;18.688;2022-10-16T08:54:23;101514.25;;;32.26;22.32
75298;BME280;63896;45.990;18.688;2022-10-16T08:57:11;101515.06;;;30.56;23.87
75298;BME280;63896;45.990;18.688;2022-10-16T09:00:14;101516.03;;;30.60;23.93
75298;BME280;63896;45.990;18.688;2022-10-16T09:06:55;101520.72;;;30.86;23.36
75298;BME280;63896;45.990;18.688;2022-10-16T09:10:26;101521.28;;;28.09;27.42
75298;BME280;63896;45.990;18.688;2022-10-16T09:20:30;101532.31;;;30.57;24.30
75298;BME280;63896;45.990;18.688;2022-10-16T09:23:36;101533.31;;;31.21;23.00
75298;BME280;63896;45.990;18.688;2022-10-16T09:26:39;101539.22;;;32.83;21.88
75298;BME280;63896;45.990;18.688;2022-10-16T09:29:43;101531.88;;;30.81;24.18
75298;BME280;63896;45.990;18.688;2022-10-16T09:32:49;101526.56;;;32.70;21.56
75298;BME280;63896;45.990;18.688;2022-10-16T09:35:56;101529.41;;;32.32;22.44
75298;BME280;63896;45.990;18.688;2022-10-16T09:39:06;101535.13;;;32.19;23.10
75298;BME280;63896;45.990;18.688;2022-10-16T09:42:15;101539.09;;;32.59;21.64
75298;BME280;63896;45.990;18.688;2022-10-16T09:45:21;101533.97;;;32.49;22.07
75298;BME280;63896;45.990;18.688;2022-10-16T09:48:31;101534.81;;;32.41;22.57
75298;BME280;63896;45.990;18.688;2022-10-16T09:51:37;101533.50;;;30.99;23.67
75298;BME280;63896;45.990;18.688;2022-10-16T09:54:51;101536.91;;;32.73;21.68
75298;BME280;63896;45.990;18.688;2022-10-16T09:57:55;101529.84;;;33.71;20.32
75298;BME280;63896;45.990;18.688;2022-10-16T10:00:58;101530.56;;;33.47;20.97
75298;BME280;63896;45.990;18.688;2022-10-16T10:04:01;101533.78;;;33.61;21.11
75298;BME280;63896;45.990;18.688;2022-10-16T10:07:05;101534.09;;;30.53;24.63
75298;BME280;63896;45.990;18.688;2022-10-16T10:10:23;101537.09;;;32.09;22.89
75298;BME280;63896;45.990;18.688;2022-10-16T10:13:26;101533.09;;;32.86;21.63
75298;BME280;63896;45.990;18.688;2022-10-16T10:16:29;101523.53;;;33.82;20.45
75298;BME280;63896;45.990;18.688;2022-10-16T10:22:57;101513.72;;;31.95;23.04
75298;BME280;63896;45.990;18.688;2022-10-16T10:29:25;101510.69;;;33.86;20.90
75298;BME280;63896;45.990;18.688;2022-10-16T10:32:43;101513.25;;;33.46;21.55
75298;BME280;63896;45.990;18.688;2022-10-16T10:42:25;101508.47;;;33.80;20.34
75298;BME280;63896;45.990;18.688;2022-10-16T10:45:42;101499.94;;;33.61;20.28
75298;BME280;63896;45.990;18.688;2022-10-16T10:48:54;101502.34;;;30.86;24.12
75298;BME280;63896;45.990;18.688;2022-10-16T10:55:33;101488.97;;;33.97;20.70
75298;BME280;63896;45.990;18.688;2022-10-16T10:58:48;101496.09;;;35.02;19.10
75298;BME280;63896;45.990;18.688;2022-10-16T11:02:00;101499.09;;;33.93;20.71
75298;BME280;63896;45.990;18.688;2022-10-16T11:15:14;101503.44;;;32.21;21.65
75298;BME280;63896;45.990;18.688;2022-10-16T11:18:45;101498.28;;;32.70;21.87
75298;BME280;63896;45.990;18.688;2022-10-16T11:21:56;101489.56;;;35.22;18.86
75298;BME280;63896;45.990;18.688;2022-10-16T11:28:20;101488.78;;;34.94;19.07
75298;BME280;63896;45.990;18.688;2022-10-16T11:31:48;101481.69;;;35.09;18.77
75298;BME280;63896;45.990;18.688;2022-10-16T11:35:02;101479.31;;;34.27;19.93
75298;BME280;63896;45.990;18.688;2022-10-16T11:38:14;101488.28;;;34.24;19.92
75298;BME280;63896;45.990;18.688;2022-10-16T11:44:57;101483.47;;;34.73;18.94
75298;BME280;63896;45.990;18.688;2022-10-16T11:48:18;101469.56;;;35.25;18.79
75298;BME280;63896;45.990;18.688;2022-10-16T11:51:42;101464.22;;;35.48;18.68
75298;BME280;63896;45.990;18.688;2022-10-16T11:54:57;101464.69;;;36.16;18.07
75298;BME280;63896;45.990;18.688;2022-10-16T11:58:07;101457.88;;;34.88;19.59
75298;BME280;63896;45.990;18.688;2022-10-16T12:01:19;101460.41;;;34.94;19.36
75298;BME280;63896;45.990;18.688;2022-10-16T12:04:34;101454.09;;;33.77;20.48
75298;BME280;63896;45.990;18.688;2022-10-16T12:08:11;101449.94;;;34.07;19.98
75298;BME280;63896;45.990;18.688;2022-10-16T12:11:35;101445.81;;;34.25;20.43
75298;BME280;63896;45.990;18.688;2022-10-16T12:14:39;101456.00;;;32.33;22.92
75298;BME280;63896;45.990;18.688;2022-10-16T12:18:02;101444.81;;;33.93;20.26
75298;BME280;63896;45.990;18.688;2022-10-16T12:21:05;101443.81;;;30.82;24.21
75298;BME280;63896;45.990;18.688;2022-10-16T12:24:38;101437.38;;;30.35;24.60
75298;BME280;63896;45.990;18.688;2022-10-16T12:27:41;101443.06;;;32.54;22.34
75298;BME280;63896;45.990;18.688;2022-10-16T12:30:53;101443.88;;;33.08;21.70
75298;BME280;63896;45.990;18.688;2022-10-16T12:33:59;101437.84;;;32.20;22.55
75298;BME280;63896;45.990;18.688;2022-10-16T12:37:31;101439.53;;;31.36;23.26
75298;BME280;63896;45.990;18.688;2022-10-16T12:40:36;101437.22;;;33.54;20.02
75298;BME280;63896;45.990;18.688;2022-10-16T12:43:45;101438.69;;;33.27;20.74
75298;BME280;63896;45.990;18.688;2022-10-16T12:46:48;101442.00;;;34.18;19.39
75298;BME280;63896;45.990;18.688;2022-10-16T12:49:54;101437.44;;;33.97;19.40
75298;BME280;63896;45.990;18.688;2022-10-16T12:52:58;101443.88;;;33.08;20.74
75298;BME280;63896;45.990;18.688;2022-10-16T12:56:08;101438.91;;;34.07;19.55
75298;BME280;63896;45.990;18.688;2022-10-16T12:59:33;101449.66;;;32.62;21.07
75298;BME280;63896;45.990;18.688;2022-10-16T13:12:50;101454.69;;;32.39;21.47
75298;BME280;63896;45.990;18.688;2022-10-16T13:16:13;101453.19;;;30.81;23.83
75298;BME280;63896;45.990;18.688;2022-10-16T13:19:38;101446.22;;;30.23;24.21
75298;BME280;63896;45.990;18.688;2022-10-16T13:29:19;101456.56;;;31.04;23.16
75298;BME280;63896;45.990;18.688;2022-10-16T13:32:23;101455.16;;;27.71;27.52
75298;BME280;63896;45.990;18.688;2022-10-16T13:35:31;101460.00;;;28.64;26.96
75298;BME280;63896;45.990;18.688;2022-10-16T13:38:35;101464.28;;;29.23;25.83
75298;BME280;63896;45.990;18.688;2022-10-16T13:41:38;101455.13;;;30.63;23.72
75298;BME280;63896;45.990;18.688;2022-10-16T13:44:48;101459.69;;;31.40;22.44
75298;BME280;63896;45.990;18.688;2022-10-16T13:48:08;101455.09;;;31.15;22.38
75298;BME280;63896;45.990;18.688;2022-10-16T13:51:18;101458.44;;;31.29;22.42
75298;BME280;63896;45.990;18.688;2022-10-16T13:54:21;101471.56;;;31.70;22.10
75298;BME280;63896;45.990;18.688;2022-10-16T13:57:24;101466.66;;;30.17;23.58
75298;BME280;63896;45.990;18.688;2022-10-16T14:00:29;101475.47;;;29.58;24.50
75298;BME280;63896;45.990;18.688;2022-10-16T14:03:34;101467.59;;;30.04;23.70
75298;BME280;63896;45.990;18.688;2022-10-16T14:06:41;101477.47;;;30.22;23.69
75298;BME280;63896;45.990;18.688;2022-10-16T14:09:48;101473.16;;;30.47;24.08
75298;BME280;63896;45.990;18.688;2022-10-16T14:12:57;101472.16;;;30.35;23.95
75298;BME280;63896;45.990;18.688;2022-10-16T14:16:08;101477.13;;;30.24;23.57
75298;BME280;63896;45.990;18.688;2022-10-16T14:19:22;101476.22;;;29.89;24.30
75298;BME280;63896;45.990;18.688;2022-10-16T14:22:42;101483.03;;;29.92;24.83
75298;BME280;63896;45.990;18.688;2022-10-16T14:25:45;101484.84;;;29.65;25.41
75298;BME280;63896;45.990;18.688;2022-10-16T14:28:49;101482.97;;;28.77;26.20
75298;BME280;63896;45.990;18.688;2022-10-16T14:32:20;101481.03;;;29.22;24.50
75298;BME280;63896;45.990;18.688;2022-10-16T14:35:28;101475.63;;;27.41;27.84
75298;BME280;63896;45.990;18.688;2022-10-16T14:38:32;101487.03;;;26.73;29.11
75298;BME280;63896;45.990;18.688;2022-10-16T14:41:43;101491.41;;;24.98;32.37
75298;BME280;63896;45.990;18.688;2022-10-16T14:44:47;101489.59;;;24.39;33.36
75298;BME280;63896;45.990;18.688;2022-10-16T14:48:04;101486.03;;;23.59;35.19
75298;BME280;63896;45.990;18.688;2022-10-16T14:51:13;101481.72;;;23.13;36.08
75298;BME280;63896;45.990;18.688;2022-10-16T14:54:18;101486.19;;;22.57;37.08
75298;BME280;63896;45.990;18.688;2022-10-16T14:57:24;101491.97;;;22.08;38.59
75298;BME280;63896;45.990;18.688;2022-10-16T15:00:30;101484.09;;;22.02;39.00
75298;BME280;63896;45.990;18.688;2022-10-16T15:03:33;101481.28;;;21.81;39.53
75298;BME280;63896;45.990;18.688;2022-10-16T15:06:36;101484.13;;;21.65;39.89
75298;BME280;63896;45.990;18.688;2022-10-16T15:09:40;101489.25;;;21.24;40.76
75298;BME280;63896;45.990;18.688;2022-10-16T15:12:50;101489.16;;;21.14;40.99
75298;BME280;63896;45.990;18.688;2022-10-16T15:15:54;101488.66;;;20.90;42.22
75298;BME280;63896;45.990;18.688;2022-10-16T15:18:57;101492.41;;;20.89;41.81
75298;BME280;63896;45.990;18.688;2022-10-16T15:22:00;101491.13;;;20.70;42.62
75298;BME280;63896;45.990;18.688;2022-10-16T15:25:32;101495.44;;;20.44;43.67
75298;BME280;63896;45.990;18.688;2022-10-16T15:28:33;101499.38;;;20.15;44.81
75298;BME280;63896;45.990;18.688;2022-10-16T15:31:38;101502.63;;;19.95;45.65
75298;BME280;63896;45.990;18.688;2022-10-16T15:34:41;101500.19;;;19.77;46.84
75298;BME280;63896;45.990;18.688;2022-10-16T15:37:46;101510.44;;;19.59;47.51
75298;BME280;63896;45.990;18.688;2022-10-16T15:40:50;101504.44;;;19.40;48.30
75298;BME280;63896;45.990;18.688;2022-10-16T15:43:53;101506.91;;;19.25;48.61
75298;BME280;63896;45.990;18.688;2022-10-16T15:46:56;101521.63;;;19.06;49.32
75298;BME280;63896;45.990;18.688;2022-10-16T15:50:00;101530.41;;;18.84;50.61
75298;BME280;63896;45.990;18.688;2022-10-16T15:53:02;101527.06;;;18.66;51.59
75298;BME280;63896;45.990;18.688;2022-10-16T15:56:06;101530.25;;;18.51;51.64
75298;BME280;63896;45.990;18.688;2022-10-16T15:59:09;101527.41;;;18.29;52.57
75298;BME280;63896;45.990;18.688;2022-10-16T16:02:13;101528.81;;;18.20;53.49
75298;BME280;63896;45.990;18.688;2022-10-16T16:05:16;101537.94;;;18.07;53.48
75298;BME280;63896;45.990;18.688;2022-10-16T16:08:19;101544.59;;;17.93;54.26
75298;BME280;63896;45.990;18.688;2022-10-16T16:11:22;101548.69;;;17.73;56.71
75298;BME280;63896;45.990;18.688;2022-10-16T16:14:26;101552.78;;;17.64;57.53
75298;BME280;63896;45.990;18.688;2022-10-16T16:17:31;101560.19;;;17.50;57.67
75298;BME280;63896;45.990;18.688;2022-10-16T16:20:34;101565.97;;;17.35;59.50
75298;BME280;63896;45.990;18.688;2022-10-16T16:23:36;101569.25;;;17.26;59.13
75298;BME280;63896;45.990;18.688;2022-10-16T16:26:40;101569.88;;;17.09;59.36
75298;BME280;63896;45.990;18.688;2022-10-16T16:29:46;101576.84;;;16.99;60.17
75298;BME280;63896;45.990;18.688;2022-10-16T16:32:50;101598.25;;;16.87;60.86
75298;BME280;63896;45.990;18.688;2022-10-16T16:35:57;101589.38;;;16.87;61.23
75298;BME280;63896;45.990;18.688;2022-10-16T16:39:00;101605.63;;;16.74;62.41
75298;BME280;63896;45.990;18.688;2022-10-16T16:42:03;101597.97;;;16.59;62.23
75298;BME280;63896;45.990;18.688;2022-10-16T16:45:08;101606.72;;;16.48;62.90
75298;BME280;63896;45.990;18.688;2022-10-16T16:48:11;101619.78;;;16.38;62.49
75298;BME280;63896;45.990;18.688;2022-10-16T16:51:16;101618.31;;;16.24;63.68
75298;BME280;63896;45.990;18.688;2022-10-16T16:54:21;101621.09;;;16.10;63.93
75298;BME280;63896;45.990;18.688;2022-10-16T16:57:25;101621.97;;;16.04;63.88
75298;BME280;63896;45.990;18.688;2022-10-16T17:00:28;101621.88;;;15.93;64.09
75298;BME280;63896;45.990;18.688;2022-10-16T17:03:33;101621.56;;;15.83;65.09
75298;BME280;63896;45.990;18.688;2022-10-16T17:06:36;101627.84;;;15.70;65.21
75298;BME280;63896;45.990;18.688;2022-10-16T17:09:39;101627.91;;;15.57;65.78
75298;BME280;63896;45.990;18.688;2022-10-16T17:12:42;101629.19;;;15.54;66.38
75298;BME280;63896;45.990;18.688;2022-10-16T17:15:46;101641.13;;;15.45;66.29
75298;BME280;63896;45.990;18.688;2022-10-16T17:18:49;101637.63;;;15.45;65.81